createdAt,value
2023-04-30T00:01:17.987Z,72.92
2023-04-30T00:11:20.740Z,71.62
2023-04-30T00:21:24.508Z,72.70
2023-04-30T00:31:26.956Z,72.61
2023-04-30T00:41:31.282Z,73.10
2023-04-30T00:51:34.062Z,72.03
2023-04-30T01:01:38.675Z,72.35
2023-04-30T01:11:47.811Z,71.95
2023-04-30T01:21:51.495Z,72.71
2023-04-30T01:31:55.199Z,71.45
2023-04-30T01:42:01.634Z,71.84
2023-04-30T01:52:10.460Z,72.05
2023-04-30T02:02:12.867Z,72.58
2023-04-30T02:12:16.616Z,72.67
2023-04-30T02:22:19.020Z,71.77
2023-04-30T02:32:22.800Z,72.80
2023-04-30T02:42:25.314Z,72.57
2023-04-30T02:52:29.110Z,71.62
2023-04-30T03:02:31.748Z,71.56
2023-04-30T03:12:35.552Z,72.38
2023-04-30T03:22:37.997Z,71.76
2023-04-30T03:32:41.789Z,74.02
2023-04-30T03:42:44.228Z,72.36
2023-04-30T03:52:48.008Z,73.46
2023-04-30T04:02:50.621Z,73.30
2023-04-30T04:12:54.442Z,74.52
2023-04-30T04:22:57.454Z,74.48
2023-04-30T04:33:01.350Z,74.61
2023-04-30T04:43:04.014Z,74.45
2023-04-30T04:53:07.764Z,75.82
2023-04-30T05:03:10.390Z,76.52
2023-04-30T05:13:14.457Z,75.57
2023-04-30T05:23:16.958Z,75.54
2023-04-30T05:33:20.771Z,75.15
2023-04-30T05:43:23.228Z,74.46
2023-04-30T05:53:27.047Z,74.65
2023-04-30T06:03:29.503Z,73.86
2023-04-30T06:13:33.951Z,73.87
2023-04-30T06:23:37.762Z,72.88
2023-04-30T06:33:41.824Z,73.39
2023-04-30T06:43:44.684Z,72.05
2023-04-30T06:53:48.488Z,71.11
2023-04-30T07:03:52.723Z,70.30
2023-04-30T07:13:56.901Z,68.92
2023-04-30T07:23:59.375Z,69.74
2023-04-30T07:34:03.143Z,67.91
2023-04-30T07:44:05.745Z,66.63
2023-04-30T07:54:09.538Z,65.39
2023-04-30T08:04:12.427Z,66.83
2023-04-30T08:14:16.288Z,64.61
2023-04-30T08:24:18.690Z,64.54
2023-04-30T08:34:22.443Z,63.77
2023-04-30T08:44:24.852Z,62.18
2023-04-30T08:54:29.564Z,61.55
2023-04-30T09:04:32.280Z,60.26
2023-04-30T09:14:40.156Z,61.55
2023-04-30T09:24:47.082Z,57.18
2023-04-30T09:34:51.075Z,55.67
2023-04-30T09:44:54.554Z,55.10
2023-04-30T09:54:58.318Z,54.20
2023-04-30T10:05:01.501Z,53.24
2023-04-30T10:15:07.549Z,53.56
2023-04-30T10:25:11.387Z,53.97
2023-04-30T10:35:18.494Z,52.46
2023-04-30T10:45:35.209Z,52.93
2023-04-30T10:55:45.947Z,53.71
2023-04-30T11:05:48.413Z,53.45
2023-04-30T11:15:52.281Z,51.83
2023-04-30T11:25:55.880Z,50.86
2023-04-30T11:36:00.543Z,50.93
2023-04-30T11:46:04.354Z,50.26
2023-04-30T11:56:08.671Z,50.35
2023-04-30T12:06:11.571Z,49.26
2023-04-30T12:16:15.716Z,49.53
2023-04-30T12:26:18.251Z,47.76
2023-04-30T12:36:22.055Z,47.51
2023-04-30T12:46:27.668Z,44.93
2023-04-30T12:56:31.436Z,44.11
2023-04-30T13:06:33.918Z,42.87
2023-04-30T13:16:39.459Z,43.57
2023-04-30T13:26:42.635Z,43.89
2023-04-30T13:36:47.048Z,44.29
2023-04-30T13:46:50.125Z,45.52
2023-04-30T13:56:53.995Z,44.28
2023-04-30T14:06:57.478Z,42.61
2023-04-30T14:17:02.032Z,44.12
2023-04-30T14:27:04.735Z,46.52
2023-04-30T14:37:08.609Z,44.71
2023-04-30T14:47:10.986Z,42.62
2023-04-30T14:57:14.978Z,44.00
2023-04-30T15:07:18.617Z,43.99
2023-04-30T15:17:22.667Z,43.16
2023-04-30T15:27:25.077Z,43.48
2023-04-30T15:37:28.823Z,43.28
2023-04-30T15:47:31.576Z,43.69
2023-04-30T15:57:35.396Z,44.24
2023-04-30T16:07:38.134Z,44.69
2023-04-30T16:17:42.175Z,45.97
2023-04-30T16:27:45.092Z,45.14
2023-04-30T16:37:48.918Z,46.00
2023-04-30T16:47:51.395Z,46.12
2023-04-30T16:57:56.061Z,46.32
2023-04-30T17:07:58.749Z,45.97
2023-04-30T17:18:02.679Z,46.00
2023-04-30T17:28:05.456Z,47.51
2023-04-30T17:38:09.196Z,48.21
2023-04-30T17:48:11.690Z,48.71
2023-04-30T17:58:15.816Z,48.04
2023-04-30T18:08:18.242Z,49.08
2023-04-30T18:18:22.461Z,50.23
2023-04-30T18:28:24.989Z,49.39
2023-04-30T18:38:28.731Z,49.32
2023-04-30T18:48:31.115Z,51.68
2023-04-30T18:58:34.854Z,51.47
2023-04-30T19:08:37.287Z,50.79
2023-04-30T19:18:41.247Z,50.73
2023-04-30T19:28:43.707Z,50.83
2023-04-30T19:38:47.442Z,51.58
2023-04-30T19:48:50.308Z,52.04
2023-04-30T19:58:54.097Z,51.51
2023-04-30T20:08:58.692Z,51.27
2023-04-30T20:19:02.430Z,51.17
2023-04-30T20:29:04.888Z,51.98
2023-04-30T20:39:10.377Z,51.80
2023-04-30T20:49:14.545Z,53.21
2023-04-30T20:59:18.330Z,53.93
2023-04-30T21:09:22.180Z,55.13
2023-04-30T21:19:26.594Z,55.30
2023-04-30T21:29:29.044Z,56.69
2023-04-30T21:39:32.814Z,56.75
2023-04-30T21:49:35.621Z,57.20
2023-04-30T21:59:40.118Z,56.38
2023-04-30T22:09:44.439Z,57.30
2023-04-30T22:19:48.277Z,57.57
2023-04-30T22:29:50.937Z,57.12
2023-04-30T22:39:54.960Z,57.48
2023-04-30T22:49:58.364Z,57.31
2023-04-30T23:00:02.580Z,56.71
2023-04-30T23:10:06.220Z,57.15
2023-04-30T23:20:10.666Z,57.19
2023-04-30T23:30:13.538Z,57.66
2023-04-30T23:40:17.531Z,57.08
2023-04-30T23:50:20.033Z,57.64
